Latest Weather Observations for Goulburn Airport

IDN60901

Issued at 5:51 pm EST Sunday 14 July 2024 (issued every 10 minutes, with the page automatically refreshed every 10 minutes)

About weather observations | Map of Canberra area stations | Latest observations for Canberra area | Other Formats
Station Details ID: 070330 Name: GOULBURN AIRPORT AWS Lat: -34.81 Lon: 149.73 Height: 640.0 m
Data from the previous 72 hours. | See also: Recent months at Goulburn Airport
Date/Time
EST
Temp
°C
App
Temp
°C
Dew
Point
°C
Rel
Hum
%
Delta-T
°C
Wind Press
QNH
hPa
Press
MSL
hPa
Rain since
9am
mm
Dir  Spd
km/h
Gust
km/h
Spd
kts
Gust
kts
14/05:30pm 4.5 -2.0 0.6 76 1.6 W 24 35 13 19 1009.3 1010.2 0.0
14/05:00pm 5.0 -1.9 0.0 70 2.0 WNW 26 33 14 18 1009.1 1010.0 0.0
14/04:30pm 6.1 -2.2 -0.2 64 2.5 W 33 43 18 23 1009.3 1010.2 0.0
14/04:00pm 7.1 -0.4 1.0 65 2.5 W 30 41 16 22 1009.4 1010.3 0.0
14/03:30pm 6.5 -2.8 0.4 65 2.5 W 39 50 21 27 1009.4 1010.3 0.0
14/03:00pm 7.0 -1.1 0.7 64 2.6 W 33 46 18 25 1009.4 1010.3 0.0
14/02:30pm 7.1 -1.8 1.0 65 2.5 W 37 52 20 28 1009.3 1010.2 0.0
14/02:00pm 7.8 0.0 1.6 65 2.6 W 32 44 17 24 1009.3 1010.2 0.0
14/01:30pm 8.3 -0.8 1.9 64 2.8 WNW 39 50 21 27 1009.1 1010.0 0.0
14/01:00pm 7.2 -0.5 2.3 71 2.1 W 32 37 17 20 1009.5 1010.5 0.0
14/12:36pm 7.1 0.6 2.4 72 2.0 W 26 35 14 19 1010.2 1011.1 0.0
14/12:30pm 6.9 0.0 2.6 74 1.9 WNW 28 37 15 20 1010.3 1011.2 0.0
14/12:00pm 6.7 -0.6 2.2 73 1.9 W 30 37 16 20 1010.7 1011.6 0.0
14/11:30am 7.8 0.3 3.5 74 1.9 WNW 32 44 17 24 1011.0 1012.0 0.0
14/11:00am 6.5 0.4 2.8 77 1.6 W 24 39 13 21 1011.6 1012.5 0.0
14/10:30am 6.6 1.0 3.6 81 1.3 WNW 22 30 12 16 1011.8 1012.7 0.0
14/10:00am 6.1 0.4 3.1 81 1.3 WNW 22 32 12 17 1012.0 1012.9 0.0
14/09:30am 5.5 0.8 3.2 85 1.0 WNW 17 24 9 13 1012.1 1013.0 0.0
14/09:00am 5.5 -0.1 3.3 86 1.0 WNW 22 30 12 16 1012.1 1013.0 0.0
14/08:30am 5.2 -0.1 3.2 87 0.9 WNW 20 32 11 17 1012.0 1012.9 0.0
14/08:00am 5.1 0.4 3.4 89 0.7 WNW 17 26 9 14 1012.1 1013.0 0.0
14/07:30am 5.0 -0.3 3.2 88 0.8 WNW 20 30 11 16 1012.0 1012.9 0.0
14/07:00am 4.9 -0.4 3.2 89 0.7 WNW 20 26 11 14 1011.9 1012.8 0.0
14/06:30am 4.9 -0.7 3.4 90 0.6 WNW 22 28 12 15 1011.7 1012.6 0.0
14/06:00am 5.0 -0.2 3.7 91 0.6 WNW 20 30 11 16 1011.7 1012.6 0.0
14/05:30am 5.1 -0.1 3.6 90 0.7 WNW 20 28 11 15 1011.2 1012.2 0.0
14/05:00am 5.2 -0.7 3.7 90 0.7 WNW 24 32 13 17 1011.2 1012.2 0.0
14/04:30am 4.9 -1.0 3.9 93 0.4 W 24 32 13 17 1011.1 1012.1 0.0
14/04:00am 5.1 -1.6 3.9 92 0.5 WNW 28 35 15 19 1011.2 1012.2 0.0
14/03:30am 5.3 0.4 4.3 93 0.4 W 19 26 10 14 1011.6 1012.5 0.0
14/03:00am 5.4 0.6 4.5 94 0.4 W 19 26 10 14 1011.7 1012.6 0.0
14/02:30am 5.4 -0.3 4.7 95 0.3 WNW 24 35 13 19 1011.7 1012.6 0.0
14/02:00am 5.3 -0.5 4.6 95 0.3 WNW 24 32 13 17 1011.6 1012.5 0.0
14/01:30am 5.4 -0.7 4.8 96 0.3 WNW 26 35 14 19 1011.6 1012.5 0.0
14/01:00am 5.3 -0.8 4.7 96 0.3 WNW 26 33 14 18 1011.4 1012.4 0.0
14/12:30am 4.7 -0.4 4.1 96 0.3 WNW 20 28 11 15 1011.7 1012.6 0.0
14/12:00am 4.7 -0.8 4.1 96 0.3 W 22 32 12 17 1011.8 1012.7 0.0
 
Date/Time
EST
Temp
°C
App
Temp
°C
Dew
Point
°C
Rel
Hum
%
Delta-T
°C
Wind Press
QNH
hPa
Press
MSL
hPa
Rain since
9am
mm
Dir  Spd
km/h
Gust
km/h
Spd
kts
Gust
kts
13/11:50pm 4.8 -0.2 4.4 97 0.2 W 20 35 11 19 1011.9 1012.8 0.0
13/11:30pm 4.8 -1.4 4.2 96 0.3 W 26 37 14 20 1012.0 1012.9 0.0
13/11:00pm 4.6 -1.2 4.2 97 0.2 WNW 24 30 13 16 1012.2 1013.2 0.0
13/10:30pm 4.3 -0.8 3.9 97 0.2 W 20 28 11 15 1012.3 1013.3 0.0
13/10:00pm 4.6 -1.7 3.7 94 0.4 W 26 32 14 17 1012.3 1013.3 0.0
13/09:30pm 4.9 -1.1 3.6 91 0.6 W 24 33 13 18 1012.3 1013.3 0.0
13/09:00pm 5.2 -0.8 3.5 89 0.7 WNW 24 32 13 17 1012.1 1013.0 0.0
13/08:30pm 5.6 0.4 3.8 88 0.8 WNW 20 28 11 15 1011.9 1012.8 0.0
13/08:00pm 5.7 0.6 3.9 88 0.8 WNW 20 26 11 14 1011.8 1012.7 0.0
13/07:30pm 5.6 1.4 3.8 88 0.8 WNW 15 20 8 11 1011.9 1012.8 0.0
13/07:00pm 5.7 1.5 3.9 88 0.8 WNW 15 19 8 10 1012.0 1012.9 0.0
13/06:30pm 5.3 1.1 3.8 90 0.7 WNW 15 19 8 10 1011.8 1012.7 0.0
13/06:00pm 5.3 1.4 3.6 89 0.7 WNW 13 17 7 9 1011.8 1012.7 0.0
13/05:30pm 6.0 1.4 3.7 85 1.0 WNW 17 20 9 11 1011.4 1012.4 0.0
13/05:00pm 6.8 2.3 4.3 84 1.1 W 17 22 9 12 1011.4 1012.4 0.0
13/04:30pm 7.9 2.0 4.1 77 1.7 WNW 24 32 13 17 1011.2 1012.2 0.0
13/04:00pm 9.2 2.7 4.8 74 2.0 W 28 39 15 21 1011.1 1012.1 0.0
13/03:30pm 9.7 3.5 4.5 70 2.4 W 26 33 14 18 1011.1 1012.1 0.0
13/03:00pm 10.8 4.9 3.8 62 3.2 W 24 32 13 17 1011.0 1012.0 0.0
13/02:30pm 10.7 5.6 4.0 63 3.1 W 20 30 11 16 1010.9 1011.9 0.0
13/02:00pm 12.0 6.2 2.2 51 4.4 WSW 22 32 12 17 1010.8 1011.7 0.0
13/01:30pm 12.4 6.4 0.8 45 5.1 SW 22 28 12 15 1011.2 1012.2 0.0
13/01:00pm 12.5 7.1 1.2 46 5.0 SW 19 24 10 13 1011.2 1012.2 0.0
13/12:30pm 12.3 7.1 0.1 43 5.2 SSW 17 22 9 12 1011.6 1012.5 0.0
13/12:00pm 12.3 7.3 1.6 48 4.7 SSW 17 22 9 12 1012.0 1012.9 0.0
13/11:30am 12.0 6.7 1.9 50 4.5 SSW 19 24 10 13 1012.5 1013.5 0.0
13/11:00am 11.6 6.9 3.1 56 3.9 SSW 17 20 9 11 1013.0 1014.0 0.0
13/10:30am 9.7 6.0 4.5 70 2.4 WSW 13 15 7 8 1013.5 1014.4 0.0
13/10:00am 9.0 5.8 5.2 77 1.8 WSW 11 17 6 9 1013.4 1014.3 0.0
13/09:30am 8.1 5.6 6.6 90 0.7 N 9 11 5 6 1013.5 1014.4 0.0
13/09:00am 5.7 3.4 5.7 100 0.0 NNW 7 9 4 5 1013.4 1014.3 0.0
13/08:30am 3.3 1.1 3.2 99 0.0 S 4 6 2 3 1013.5 1014.4 0.0
13/08:00am 2.5 0.1 2.4 99 0.0 S 4 6 2 3 1013.3 1014.2 0.0
13/07:30am 1.9 -1.1 1.8 99 0.0 S 7 7 4 4 1013.4 1014.3 0.0
13/07:22am 1.2 -1.0 1.1 99 0.0 S 2 7 1 4 1013.5 1014.4 0.0
13/07:16am 1.2 -1.8 1.1 99 0.0 S 6 9 3 5 1013.5 1014.4 0.0
13/07:00am 1.4 -2.1 1.3 99 0.0 S 9 13 5 7 1013.4 1014.3 0.0
13/06:30am 3.9 0.1 3.8 99 0.0 W 13 19 7 10 1013.1 1014.1 0.0
13/06:00am 2.4 0.0 2.3 99 0.0 N 4 7 2 4 1013.0 1014.0 0.0
13/05:30am 1.0 -0.8 0.9 99 0.0 CALM 0 0 0 0 1012.6 1013.6 0.0
13/05:00am 0.5 -1.8 0.4 99 0.0 NNE 2 9 1 5 1012.5 1013.5 0.0
13/04:30am 0.5 -2.2 0.4 99 0.0 NNE 4 7 2 4 1012.4 1013.4 0.0
13/04:21am 0.7 -1.2 0.6 99 0.0 CALM 0 0 0 0 1012.3 1013.3 0.0
13/04:00am 1.2 -1.4 1.1 99 0.0 NNE 4 7 2 4 1012.4 1013.4 0.0
13/03:39am 1.8 -0.3 1.7 99 0.0 N 2 7 1 4 1012.4 1013.4 0.0
13/03:30am 1.6 -1.5 1.5 99 0.0 NW 7 11 4 6 1012.3 1013.3 0.0
13/03:19am 1.9 -1.9 1.8 99 0.0 W 11 13 6 7 1012.3 1013.3 0.0
13/03:00am 2.4 0.8 2.3 99 0.0 CALM 0 0 0 0 1012.5 1013.5 0.0
13/02:59am 2.6 1.0 2.5 99 0.0 CALM 0 0 0 0 1012.5 1013.5 0.0
13/02:30am 3.1 1.6 3.0 99 0.0 CALM 0 0 0 0 1012.8 1013.8 0.0
13/02:00am 3.1 0.3 3.0 99 0.0 WSW 7 9 4 5 1012.7 1013.7 0.0
13/01:30am 3.3 1.1 3.2 99 0.0 WSW 4 7 2 4 1012.8 1013.8 0.0
13/01:00am 2.9 1.0 2.8 99 0.0 N 2 7 1 4 1012.7 1013.7 0.0
13/12:46am 2.8 1.2 2.7 99 0.0 CALM 0 0 0 0 1012.8 1013.8 0.0
13/12:30am 2.4 0.8 2.3 99 0.0 CALM 0 0 0 0 1012.9 1013.9 0.0
13/12:11am 2.4 0.8 2.3 99 0.0 CALM 0 0 0 0 1013.0 1014.0 0.0
13/12:00am 2.8 1.2 2.7 99 0.0 CALM 0 0 0 0 1013.0 1014.0 0.0
 
Date/Time
EST
Temp
°C
App
Temp
°C
Dew
Point
°C
Rel
Hum
%
Delta-T
°C
Wind Press
QNH
hPa
Press
MSL
hPa
Rain since
9am
mm
Dir  Spd
km/h
Gust
km/h
Spd
kts
Gust
kts
12/11:30pm 3.3 1.8 3.2 99 0.0 CALM 0 0 0 0 1013.1 1014.1 0.0
12/11:00pm 4.2 2.9 4.1 99 0.0 CALM 0 6 0 3 1013.0 1014.0 0.0
12/10:30pm 3.9 2.5 3.8 99 0.0 CALM 0 0 0 0 1013.6 1014.6 0.0
12/10:00pm 4.2 2.1 4.1 99 0.0 NNE 4 11 2 6 1013.9 1014.9 0.0
12/09:30pm 4.1 1.6 4.0 99 0.0 WNW 6 9 3 5 1014.0 1015.0 0.0
12/09:00pm 3.7 2.3 3.6 99 0.0 CALM 0 0 0 0 1014.1 1015.1 0.0
12/08:30pm 3.5 2.1 3.4 99 0.0 CALM 0 0 0 0 1014.2 1015.2 0.0
12/08:00pm 2.2 0.5 2.1 99 0.0 CALM 0 0 0 0 1014.2 1015.2 0.0
12/07:30pm 2.8 1.2 2.7 99 0.0 CALM 0 7 0 4 1013.9 1014.9 0.0
12/07:00pm 3.5 2.0 3.2 98 0.1 CALM 0 0 0 0 1013.8 1014.8 0.0
12/06:30pm 4.7 2.7 4.6 99 0.0 W 4 7 2 4 1013.3 1014.2 0.0
12/06:00pm 4.1 0.9 3.2 94 0.4 W 9 11 5 6 1012.8 1013.8 0.0
12/05:30pm 4.6 1.1 3.4 92 0.5 W 11 13 6 7 1012.5 1013.5 0.0
12/05:00pm 6.6 3.2 4.1 84 1.1 W 11 13 6 7 1012.4 1013.4 0.0
12/04:30pm 10.1 6.2 5.3 72 2.3 W 15 20 8 11 1012.4 1013.4 0.0
12/04:00pm 11.0 6.3 5.3 68 2.7 W 19 24 10 13 1012.3 1013.3 0.0
12/03:30pm 12.3 8.4 5.2 62 3.4 W 15 19 8 10 1012.2 1013.2 0.0
12/03:00pm 12.8 9.2 2.9 51 4.5 W 11 15 6 8 1012.3 1013.3 0.0
12/02:30pm 13.0 9.2 3.7 53 4.3 WNW 13 19 7 10 1012.4 1013.4 0.0
12/02:00pm 12.4 8.5 3.6 55 4.1 WNW 13 17 7 9 1012.3 1013.3 0.0
12/01:30pm 11.7 6.9 4.7 62 3.3 WNW 19 24 10 13 1012.2 1013.2 0.0
12/01:00pm 11.5 8.0 5.4 66 2.9 W 13 17 7 9 1012.3 1013.3 0.0
12/12:30pm 11.3 7.3 5.0 65 3.0 WNW 15 19 8 10 1013.0 1014.0 0.0
12/12:00pm 10.1 6.5 5.1 71 2.4 WNW 13 17 7 9 1013.5 1014.4 0.0
12/11:30am 9.7 7.2 4.7 71 2.3 WNW 7 13 4 7 1013.9 1014.9 0.0
12/11:00am 9.4 6.4 4.0 69 2.5 W 9 13 5 7 1014.4 1015.4 0.0
12/10:30am 8.8 4.9 5.5 80 1.5 W 15 20 8 11 1014.9 1015.9 0.0
12/10:00am 7.4 3.9 5.4 87 0.9 W 13 17 7 9 1015.3 1016.3 0.0
12/09:30am 5.5 2.2 4.8 95 0.3 WNW 11 13 6 7 1015.2 1016.2 0.0
12/09:00am 4.0 1.0 3.9 99 0.0 NW 9 15 5 8 1015.2 1016.2 0.0
12/08:30am 2.9 0.0 2.8 99 0.0 N 7 9 4 5 1015.3 1016.3 0.0
12/08:00am 1.5 -1.4 1.4 99 0.0 NE 6 7 3 4 1015.4 1016.4 0.0
12/07:30am 1.0 -2.2 0.9 99 0.0 NNW 7 13 4 7 1015.5 1016.5 0.0
12/07:00am 0.4 -3.6 0.3 99 0.0 NNW 11 13 6 7 1015.4 1016.4 0.0
12/06:30am -0.3 -4.1 -0.4 99 0.0 N 9 11 5 6 1015.5 1016.5 0.0
12/06:00am 0.6 -2.1 0.5 99 0.0 NW 4 7 2 4 1015.4 1016.4 0.0
12/05:30am 1.0 -2.0 0.9 99 0.0 NNW 6 9 3 5 1015.5 1016.5 0.0
12/05:11am 0.8 -1.1 0.7 99 0.0 CALM 0 0 0 0 1015.2 1016.2 0.0
12/05:08am 1.0 -0.8 0.9 99 0.0 CALM 0 0 0 0 1015.2 1016.2 0.0
12/05:00am 1.2 -1.0 1.1 99 0.0 NNW 2 7 1 4 1015.0 1016.0 0.0
12/04:30am 2.3 0.3 2.2 99 0.0 NW 2 7 1 4 1015.0 1016.0 0.0
12/04:00am 2.7 -0.6 2.6 99 0.0 NW 9 11 5 6 1015.4 1016.4 0.0
12/03:30am 2.9 1.4 2.8 99 0.0 CALM 0 0 0 0 1015.5 1016.5 0.0
12/03:00am 3.1 -0.1 3.0 99 0.0 WNW 9 15 5 8 1016.2 1017.3 0.0
12/02:30am 3.0 -0.2 2.9 99 0.0 NNW 9 13 5 7 1016.2 1017.3 0.0
12/02:00am 3.0 -1.0 2.9 99 0.0 NW 13 17 7 9 1016.6 1017.6 0.0
12/01:49am 2.7 -0.6 2.6 99 0.0 NNW 9 13 5 7 1016.7 1017.7 0.0
12/01:38am 2.7 -0.2 2.6 99 0.0 N 7 9 4 5 1016.8 1017.8 0.0
12/01:30am 2.7 -1.0 2.6 99 0.0 N 11 15 6 8 1016.9 1017.9 0.0
12/01:15am 3.2 -0.8 3.1 99 0.0 NW 13 17 7 9 1016.9 1017.9 0.0
12/01:12am 2.9 -1.1 2.8 99 0.0 NW 13 17 7 9 1017.0 1018.0 0.0
12/01:00am 1.5 -0.6 1.4 99 0.0 NNW 2 9 1 5 1017.0 1018.0 0.0
12/12:57am 1.6 -0.2 1.5 99 0.0 CALM 0 0 0 0 1017.1 1018.1 0.0
12/12:41am 1.9 0.2 1.8 99 0.0 CALM 0 0 0 0 1017.0 1018.0 0.0
12/12:30am 2.2 0.2 2.1 99 0.0 NNW 2 6 1 3 1017.2 1018.2 0.0
12/12:00am 2.3 -1.8 2.2 99 0.0 NNW 13 15 7 8 1017.6 1018.7 0.0
 
Date/Time
EST
Temp
°C
App
Temp
°C
Dew
Point
°C
Rel
Hum
%
Delta-T
°C
Wind Press
QNH
hPa
Press
MSL
hPa
Rain since
9am
mm
Dir  Spd
km/h
Gust
km/h
Spd
kts
Gust
kts
11/11:30pm 2.4 -1.3 2.3 99 0.0 NNW 11 13 6 7 1017.7 1018.8 0.0
11/11:00pm 2.0 -1.8 1.9 99 0.0 N 11 13 6 7 1017.9 1019.0 0.0
11/10:30pm 1.2 -1.4 1.1 99 0.0 W 4 6 2 3 1018.0 1019.1 0.0
11/10:00pm 2.6 -0.3 2.5 99 0.0 NW 7 9 4 5 1018.3 1019.3 0.0
11/09:30pm 3.1 1.2 3.0 99 0.0 SE 2 9 1 5 1018.5 1019.5 0.0
11/09:00pm 3.2 0.6 3.1 99 0.0 E 6 9 3 5 1018.8 1019.9 0.0
11/08:30pm 3.5 0.4 3.4 99 0.0 NNW 9 13 5 7 1019.0 1020.1 0.0
11/08:00pm 3.4 0.8 3.3 99 0.0 NNW 6 7 3 4 1018.9 1020.0 0.0
11/07:30pm 3.1 0.4 2.8 98 0.1 NW 6 9 3 5 1018.8 1019.9 0.0
11/07:00pm 3.9 1.2 3.8 99 0.0 NNW 7 13 4 7 1018.4 1019.4 0.0
11/06:30pm 3.6 0.8 3.0 96 0.3 NNW 7 9 4 5 1018.8 1019.9 0.0
11/06:00pm 4.9 3.6 4.3 96 0.3 CALM 0 7 0 4 1018.0 1019.1 0.0

Latest Capital City Observations: Canberra | Sydney | Melbourne | Brisbane | Adelaide | Perth | Hobart | Darwin

Other formats

Comma delimited format used in spreadsheet applications
http://www.bom.gov.au/fwo/IDN60903/IDN60903.95716.axf

JavaScript Object Notation format (JSON) in row-major order
http://www.bom.gov.au/fwo/IDN60903/IDN60903.95716.json

Data quality

Most of these data are generated automatically and are frequently updated. Quality checks on data are not normally performed. It is possible for incorrect values to appear. Refer to information at About Latest Weather Observations and please check the disclaimer before using these data.